Time;durP1;ratioP1;P1;durP2;ratioP2;P2;SDS_P1;SDS_P2;PMS_P1;PMS_P2;Temp;Humidity;BMP_temperature;BMP_pressure;BME280_temperature;BME280_humidity;BME280_pressure;Samples;Min_cycle;Max_cycle;Signal;HPM_P1;HPM_P2
2022/06/02 00:02:38;;;;;;;9.35;7.05;;;7.40;99.90;;;;;;5079397;28;20040;-65
2022/06/02 00:05:12;;;;;;;14.82;6.82;;;7.30;99.90;;;;;;5082017;28;20059;-64
2022/06/02 00:07:57;;;;;;;13.85;7.80;;;7.30;99.90;;;;;;5082195;28;20044;-65
2022/06/02 00:11:08;;;;;;;10.05;6.63;;;7.30;99.90;;;;;;5082073;28;20071;-65
2022/06/02 00:13:41;;;;;;;10.40;6.53;;;7.30;99.90;;;;;;5079304;28;20090;-66
2022/06/02 00:16:14;;;;;;;9.65;6.78;;;7.30;99.90;;;;;;5082315;28;20044;-62
2022/06/02 00:18:52;;;;;;;11.85;7.30;;;7.20;99.90;;;;;;5069814;28;20068;-65
2022/06/02 00:21:37;;;;;;;7.10;6.15;;;7.30;99.90;;;;;;5068471;28;20052;-63
2022/06/02 00:24:11;;;;;;;8.85;6.63;;;7.30;99.90;;;;;;5067959;28;20106;-63
2022/06/02 00:26:59;;;;;;;11.68;7.70;;;7.20;99.90;;;;;;5067638;28;20049;-63
2022/06/02 00:29:50;;;;;;;9.95;7.80;;;7.30;99.90;;;;;;5068374;28;20044;-61
2022/06/02 00:32:34;;;;;;;15.15;9.65;;;7.30;99.90;;;;;;5066223;28;20041;-64
2022/06/02 00:35:24;;;;;;;13.57;8.75;;;7.30;99.90;;;;;;5067718;28;20505;-62
2022/06/02 00:38:05;;;;;;;13.57;8.00;;;7.30;99.90;;;;;;5067451;28;20043;-59
2022/06/02 00:40:33;;;;;;;10.50;7.90;;;7.40;99.90;;;;;;5067615;28;20406;-61
2022/06/02 00:43:02;;;;;;;14.00;8.43;;;7.30;99.90;;;;;;5067721;28;20036;-61
2022/06/02 00:45:28;;;;;;;8.10;6.85;;;7.30;99.90;;;;;;5067182;28;20642;-61
2022/06/02 00:48:09;;;;;;;10.57;6.78;;;7.30;99.90;;;;;;5067373;28;20657;-60
2022/06/02 00:50:42;;;;;;;9.88;7.90;;;7.40;99.90;;;;;;5067634;28;20036;-62
2022/06/02 00:53:21;;;;;;;11.25;7.93;;;7.30;99.90;;;;;;5066947;28;20036;-61
2022/06/02 00:59:13;;;;;;;16.67;11.18;;;7.30;99.90;;;;;;5047572;28;20032;-62
2022/06/02 01:01:39;;;;;;;13.65;10.10;;;7.20;99.90;;;;;;5035688;28;20069;-63
2022/06/02 01:04:08;;;;;;;;;;;7.20;99.90;;;;;;5047403;28;20573;-61
2022/06/02 01:06:41;;;;;;;18.17;12.38;;;7.20;99.90;;;;;;5046205;28;19932;-61
2022/06/02 01:09:40;;;;;;;13.20;10.07;;;7.20;99.90;;;;;;5027970;28;20040;-63
2022/06/02 01:12:23;;;;;;;15.63;8.60;;;7.20;99.90;;;;;;5046850;28;20182;-61
2022/06/02 01:15:07;;;;;;;12.90;9.73;;;7.20;99.90;;;;;;5047079;28;20116;-61
2022/06/02 01:17:49;;;;;;;16.70;11.18;;;7.20;99.90;;;;;;5046784;28;20045;-60
2022/06/02 01:20:22;;;;;;;16.65;10.82;;;7.20;99.90;;;;;;5046836;28;20080;-60
2022/06/02 01:23:14;;;;;;;17.45;11.55;;;7.10;99.90;;;;;;5047055;28;20813;-62
2022/06/02 01:25:53;;;;;;;19.67;12.20;;;7.10;99.90;;;;;;5041315;28;20045;-62
2022/06/02 01:28:47;;;;;;;14.55;10.15;;;7.00;99.90;;;;;;5046630;28;20041;-63
2022/06/02 01:31:57;;;;;;;14.85;10.38;;;7.10;99.90;;;;;;5045345;28;20552;-59
2022/06/02 01:34:51;;;;;;;17.80;11.40;;;7.10;99.90;;;;;;5021395;28;20041;-62
2022/06/02 01:37:23;;;;;;;13.40;9.55;;;7.10;99.90;;;;;;5032029;28;20048;-61
2022/06/02 01:40:05;;;;;;;16.13;9.68;;;7.10;99.90;;;;;;5046579;28;20068;-61
2022/06/02 01:42:56;;;;;;;12.52;9.18;;;7.20;99.90;;;;;;5046636;28;20061;-62
2022/06/02 01:45:54;;;;;;;24.90;10.10;;;7.20;99.90;;;;;;5046568;28;20039;-60
2022/06/02 01:48:32;;;;;;;17.23;10.45;;;7.10;99.90;;;;;;5047623;28;20123;-61
2022/06/02 01:51:31;;;;;;;14.15;9.93;;;7.20;99.90;;;;;;5047341;28;20044;-58
2022/06/02 01:54:39;;;;;;;17.13;10.75;;;7.10;99.90;;;;;;5046782;28;20052;-60
2022/06/02 01:57:37;;;;;;;17.75;11.80;;;7.10;99.90;;;;;;5045663;28;20680;-60
2022/06/02 02:00:10;;;;;;;22.63;12.20;;;7.10;99.90;;;;;;5027849;28;20088;-59
2022/06/02 02:03:00;;;;;;;18.08;10.82;;;7.00;99.90;;;;;;5045139;28;20040;-63
2022/06/02 02:05:32;;;;;;;24.75;11.45;;;7.00;99.90;;;;;;5045523;28;20071;-63
2022/06/02 02:07:58;;;;;;;16.75;11.00;;;7.10;99.90;;;;;;5045076;28;20045;-61
2022/06/02 02:10:33;;;;;;;;;;;7.10;99.90;;;;;;5046759;28;20443;-61
2022/06/02 02:13:20;;;;;;;17.02;10.63;;;7.00;99.90;;;;;;5046227;28;19968;-61
2022/06/02 02:15:55;;;;;;;14.85;9.65;;;7.00;99.90;;;;;;5046261;28;20041;-61
2022/06/02 02:18:48;;;;;;;17.75;10.68;;;7.10;99.90;;;;;;5046283;28;20057;-62
2022/06/02 02:21:27;;;;;;;19.00;11.90;;;7.00;99.90;;;;;;5045595;28;20412;-61
2022/06/02 02:24:16;;;;;;;15.75;10.27;;;6.90;99.90;;;;;;5045165;28;20041;-61
2022/06/02 02:27:01;;;;;;;15.95;10.80;;;6.80;99.90;;;;;;5040436;28;20094;-62
2022/06/02 02:29:40;;;;;;;21.00;11.57;;;6.70;99.90;;;;;;5045578;28;20043;-59
2022/06/02 02:32:23;;;;;;;16.45;9.25;;;6.70;99.90;;;;;;5044495;28;20041;-60
2022/06/02 02:35:02;;;;;;;14.45;9.10;;;6.80;99.90;;;;;;5045675;28;20401;-61
2022/06/02 02:37:54;;;;;;;16.25;9.98;;;6.90;99.90;;;;;;5045485;28;20068;-61
2022/06/02 02:40:29;;;;;;;14.18;9.02;;;6.90;99.90;;;;;;5044909;28;20040;-60
2022/06/02 02:43:07;;;;;;;18.35;10.27;;;7.00;99.90;;;;;;5046024;28;20513;-61
2022/06/02 02:46:03;;;;;;;15.32;10.02;;;6.90;99.90;;;;;;5045717;28;20045;-60
2022/06/02 02:49:05;;;;;;;11.82;8.55;;;6.80;99.90;;;;;;5027711;28;20077;-62
2022/06/02 02:51:33;;;;;;;15.02;9.93;;;6.90;99.90;;;;;;5061489;28;20037;-60
2022/06/02 02:54:17;;;;;;;15.85;8.55;;;6.90;99.90;;;;;;5045283;28;20048;-61
2022/06/02 02:57:04;;;;;;;11.98;8.27;;;6.80;99.90;;;;;;5045645;28;20072;-60
2022/06/02 02:59:53;;;;;;;15.80;9.25;;;6.80;99.90;;;;;;5045948;28;20044;-63
2022/06/02 03:02:36;;;;;;;13.23;9.27;;;6.70;99.90;;;;;;5062266;28;20135;-62
2022/06/02 03:05:25;;;;;;;14.23;9.75;;;6.80;99.90;;;;;;5065051;28;20055;-62
2022/06/02 03:07:51;;;;;;;15.27;10.63;;;6.80;99.90;;;;;;5065981;28;20614;-60
2022/06/02 03:10:16;;;;;;;;;;;6.70;99.90;;;;;;5065812;28;20048;-62
2022/06/02 03:12:56;;;;;;;13.90;9.60;;;6.60;99.90;;;;;;5065410;28;19920;-61
2022/06/02 03:15:37;;;;;;;15.27;9.32;;;6.70;99.90;;;;;;5064819;28;20123;-59
2022/06/02 03:18:24;;;;;;;13.75;10.07;;;6.70;99.90;;;;;;5065567;28;20036;-62
2022/06/02 03:20:49;;;;;;;;;;;6.60;99.90;;;;;;5065666;28;20055;-61
2022/06/02 03:23:27;;;;;;;13.48;8.23;;;6.60;99.90;;;;;;5064612;28;20586;-61
2022/06/02 03:26:02;;;;;;;13.80;8.60;;;6.70;99.90;;;;;;5064685;28;20098;-61
2022/06/02 03:28:41;;;;;;;12.25;8.40;;;6.60;99.90;;;;;;5065260;28;20094;-60
2022/06/02 03:31:34;;;;;;;13.55;9.32;;;6.60;99.90;;;;;;5063226;28;20029;-59
2022/06/02 03:34:21;;;;;;;13.65;9.02;;;6.70;99.90;;;;;;5063149;28;20041;-62
2022/06/02 03:37:14;;;;;;;15.95;9.82;;;6.70;99.90;;;;;;5048227;28;20045;-59
2022/06/02 03:40:01;;;;;;;14.70;8.23;;;6.80;99.90;;;;;;5065551;28;20496;-61
2022/06/02 03:42:36;;;;;;;14.40;9.40;;;6.80;99.90;;;;;;5064434;28;20041;-60
2022/06/02 03:45:11;;;;;;;11.73;7.55;;;6.90;99.90;;;;;;5065176;28;20028;-61
2022/06/02 03:47:59;;;;;;;12.97;8.40;;;6.90;99.90;;;;;;5065470;28;20507;-59
2022/06/02 03:50:57;;;;;;;13.20;8.38;;;6.90;99.90;;;;;;5065087;28;20554;-61
2022/06/02 03:53:37;;;;;;;9.93;7.20;;;6.90;99.90;;;;;;5067230;28;20105;-62
2022/06/02 03:56:25;;;;;;;18.90;9.68;;;6.90;99.90;;;;;;5068312;28;20436;-62
2022/06/02 03:59:18;;;;;;;11.98;7.78;;;6.90;99.90;;;;;;5068936;28;20507;-62
2022/06/02 04:01:53;;;;;;;15.30;8.85;;;6.90;99.90;;;;;;5067134;28;20451;-59
2022/06/02 04:04:28;;;;;;;16.30;9.70;;;6.90;99.90;;;;;;5063435;28;20163;-62
2022/06/02 04:07:28;;;;;;;12.30;8.68;;;6.80;99.90;;;;;;5059487;28;20052;-60
2022/06/02 04:10:02;;;;;;;15.40;8.15;;;6.80;99.90;;;;;;5061653;28;20032;-61
2022/06/02 04:15:40;;;;;;;13.57;8.73;;;6.90;99.90;;;;;;5062527;28;20032;-63
2022/06/02 04:18:32;;;;;;;12.05;8.40;;;7.00;99.90;;;;;;5064003;28;20404;-64
2022/06/02 04:21:09;;;;;;;11.40;8.20;;;7.20;99.90;;;;;;5061165;28;20043;-61
2022/06/02 04:24:01;;;;;;;18.17;9.35;;;7.20;99.90;;;;;;5063664;28;20412;-59
2022/06/02 04:26:58;;;;;;;14.40;8.48;;;7.20;99.90;;;;;;5067018;28;20703;-62
2022/06/02 04:29:42;;;;;;;6.93;5.40;;;7.20;99.90;;;;;;5060520;28;20040;-61
2022/06/02 04:32:17;;;;;;;13.63;8.20;;;7.30;99.90;;;;;;5048201;28;20131;-59
2022/06/02 04:34:51;;;;;;;11.45;8.32;;;7.30;99.90;;;;;;5046173;28;20559;-60
2022/06/02 04:37:43;;;;;;;16.30;9.40;;;7.50;99.90;;;;;;5045763;28;20044;-61
2022/06/02 04:40:39;;;;;;;17.38;8.20;;;7.60;99.90;;;;;;5047180;28;20501;-61
2022/06/02 04:43:27;;;;;;;12.27;8.23;;;7.70;99.90;;;;;;5046801;28;20037;-61
2022/06/02 04:46:30;;;;;;;15.57;8.98;;;7.80;99.90;;;;;;5046284;28;20049;-60
2022/06/02 04:49:11;;;;;;;13.80;9.20;;;8.10;99.90;;;;;;5047683;28;20037;-61
2022/06/02 04:52:05;;;;;;;12.40;8.77;;;8.40;99.90;;;;;;5046869;28;20032;-62
2022/06/02 04:54:36;;;;;;;12.55;8.10;;;8.80;99.90;;;;;;5046917;28;20116;-61
2022/06/02 04:57:25;;;;;;;13.68;9.07;;;8.90;99.90;;;;;;5045254;28;20037;-61
2022/06/02 05:00:09;;;;;;;11.60;7.50;;;9.00;99.90;;;;;;5043857;28;20051;-61
2022/06/02 05:02:58;;;;;;;15.57;8.52;;;9.20;99.90;;;;;;5046061;28;20701;-64
2022/06/02 05:05:53;;;;;;;14.52;8.35;;;9.40;99.90;;;;;;5047129;28;20140;-65
2022/06/02 05:08:50;;;;;;;13.23;8.68;;;9.40;99.90;;;;;;5032753;28;20075;-61
2022/06/02 05:11:45;;;;;;;14.18;8.88;;;9.50;99.90;;;;;;5044071;28;20045;-60
2022/06/02 05:14:58;;;;;;;15.43;9.05;;;9.50;99.90;;;;;;5046698;28;20036;-61
2022/06/02 05:17:40;;;;;;;13.52;8.13;;;9.50;99.90;;;;;;4996565;28;20064;-61
2022/06/02 05:20:33;;;;;;;14.32;8.90;;;9.70;99.90;;;;;;5047637;28;20033;-59
2022/06/02 05:23:20;;;;;;;10.73;7.68;;;9.80;99.90;;;;;;5047365;28;20508;-59
2022/06/02 05:26:05;;;;;;;12.48;8.15;;;10.00;99.90;;;;;;5046690;28;20045;-60
2022/06/02 05:28:43;;;;;;;12.32;8.63;;;10.20;99.90;;;;;;5047692;28;20049;-61
2022/06/02 05:31:36;;;;;;;18.08;9.77;;;10.30;99.90;;;;;;5044720;28;20063;-60
2022/06/02 05:34:01;;;;;;;10.00;7.40;;;10.60;99.90;;;;;;5047340;28;20079;-60
2022/06/02 05:36:46;;;;;;;;;;;10.70;99.90;;;;;;5048452;28;20032;-61
2022/06/02 05:39:46;;;;;;;11.50;8.02;;;10.80;99.90;;;;;;5047601;28;20007;-61
2022/06/02 05:42:27;;;;;;;10.77;7.00;;;10.90;99.90;;;;;;5047398;28;20958;-62
2022/06/02 05:45:42;;;;;;;14.68;7.78;;;10.80;99.90;;;;;;5047724;28;20049;-61
2022/06/02 05:48:24;;;;;;;14.27;9.00;;;10.80;99.90;;;;;;5018175;28;20061;-59
2022/06/02 05:51:03;;;;;;;14.25;8.45;;;10.70;99.90;;;;;;5042189;28;20083;-61
2022/06/02 05:53:45;;;;;;;11.10;8.63;;;10.60;99.90;;;;;;5049498;28;20053;-62
2022/06/02 05:56:29;;;;;;;7.70;6.43;;;10.60;99.90;;;;;;5054332;28;20051;-61
2022/06/02 05:59:10;;;;;;;9.35;6.53;;;10.60;99.90;;;;;;5031865;28;20123;-61
2022/06/02 06:02:00;;;;;;;11.85;7.95;;;10.70;99.90;;;;;;5063288;28;20096;-62
2022/06/02 06:04:41;;;;;;;11.15;6.55;;;10.80;99.90;;;;;;5066377;28;20052;-66
2022/06/02 06:07:28;;;;;;;7.22;5.80;;;11.00;99.90;;;;;;5073635;28;20508;-63
2022/06/02 06:10:18;;;;;;;10.80;5.72;;;11.10;99.90;;;;;;5071078;28;20036;-65
2022/06/02 06:13:25;;;;;;;7.70;5.20;;;11.20;99.90;;;;;;5074306;28;20040;-62
2022/06/02 06:16:15;;;;;;;11.65;5.18;;;11.30;99.90;;;;;;5038911;28;20548;-61
2022/06/02 06:18:46;;;;;;;8.48;5.10;;;11.30;99.90;;;;;;5065894;28;20393;-64
2022/06/02 06:21:18;;;;;;;5.75;4.50;;;11.40;99.90;;;;;;5074262;28;20028;-63
2022/06/02 06:24:08;;;;;;;5.60;4.03;;;11.40;99.90;;;;;;5065872;28;20773;-62
2022/06/02 06:27:10;;;;;;;8.77;4.45;;;11.70;99.90;;;;;;5076630;28;20044;-64
2022/06/02 06:30:01;;;;;;;6.25;4.25;;;11.80;99.90;;;;;;5075000;28;20048;-62
2022/06/02 06:32:58;;;;;;;5.20;3.85;;;11.90;99.90;;;;;;5067180;28;20071;-62
2022/06/02 06:35:30;;;;;;;;;;;11.90;99.90;;;;;;5067165;28;20045;-62
2022/06/02 06:38:16;;;;;;;6.50;3.00;;;12.20;99.90;;;;;;5066938;28;20343;-61
2022/06/02 06:41:10;;;;;;;3.93;3.00;;;12.00;99.90;;;;;;5066126;28;20495;-63
2022/06/02 06:44:12;;;;;;;5.20;2.47;;;12.10;99.90;;;;;;5066706;28;20373;-62
2022/06/02 06:46:40;;;;;;;4.55;2.35;;;12.10;99.90;;;;;;5066528;28;20067;-62
2022/06/02 06:49:24;;;;;;;2.70;2.13;;;12.30;99.90;;;;;;5066590;28;20585;-62
2022/06/02 06:52:08;;;;;;;3.35;1.80;;;13.30;99.90;;;;;;5066251;28;20037;-62
2022/06/02 06:55:03;;;;;;;4.43;2.00;;;13.70;99.90;;;;;;5065651;28;20036;-63
2022/06/02 06:57:43;;;;;;;4.13;2.10;;;13.60;99.90;;;;;;5047532;28;20437;-63
2022/06/02 07:00:35;;;;;;;5.13;2.00;;;13.40;99.90;;;;;;5066377;28;20055;-62
2022/06/02 07:03:17;;;;;;;4.47;2.08;;;12.90;99.90;;;;;;5046106;28;20036;-63
2022/06/02 07:05:52;;;;;;;4.90;2.63;;;12.70;99.90;;;;;;5033198;28;20049;-62
2022/06/02 07:08:39;;;;;;;4.75;2.35;;;13.00;99.90;;;;;;5047767;28;20086;-63
2022/06/02 07:14:23;;;;;;;4.10;2.38;;;12.70;99.90;;;;;;5047274;28;20045;-63
2022/06/02 07:16:57;;;;;;;3.80;2.13;;;12.60;99.90;;;;;;5047199;28;20033;-63
2022/06/02 07:19:44;;;;;;;2.28;1.60;;;13.00;99.90;;;;;;5047563;28;20091;-63
2022/06/02 07:22:25;;;;;;;2.60;2.00;;;13.10;99.90;;;;;;5046941;28;20585;-64
2022/06/02 07:25:26;;;;;;;5.50;2.28;;;12.90;99.90;;;;;;5054708;28;20047;-64
2022/06/02 07:28:31;;;;;;;6.95;2.50;;;12.60;99.90;;;;;;5009339;28;20135;-62
2022/06/02 07:31:22;;;;;;;3.50;2.10;;;12.30;99.90;;;;;;5040926;28;20386;-63
2022/06/02 07:34:20;;;;;;;3.72;2.05;;;12.20;99.90;;;;;;5070061;28;20132;-65
2022/06/02 07:37:04;;;;;;;2.03;1.85;;;12.60;99.90;;;;;;5069052;28;20059;-62
2022/06/02 07:40:07;;;;;;;4.68;1.98;;;13.10;99.90;;;;;;5063132;28;20033;-63
2022/06/02 07:42:57;;;;;;;3.88;2.05;;;13.20;99.40;;;;;;5069913;28;20066;-63
2022/06/02 07:45:35;;;;;;;2.63;1.90;;;12.90;99.90;;;;;;5069785;28;20055;-64
2022/06/02 07:48:24;;;;;;;1.73;1.45;;;12.90;99.90;;;;;;5050307;28;20033;-65
2022/06/02 07:51:18;;;;;;;4.10;1.77;;;12.90;99.90;;;;;;5051319;28;20045;-63
2022/06/02 07:53:59;;;;;;;1.85;1.35;;;13.00;99.90;;;;;;5069172;28;20063;-64
2022/06/02 07:56:37;;;;;;;3.55;1.60;;;13.40;99.90;;;;;;5065595;28;20453;-63
2022/06/02 07:59:24;;;;;;;5.28;1.75;;;13.40;99.90;;;;;;5069542;28;20090;-62
2022/06/02 08:01:55;;;;;;;1.73;1.23;;;13.60;99.70;;;;;;5067761;28;20048;-63
2022/06/02 08:04:37;;;;;;;4.40;1.95;;;13.70;98.20;;;;;;5069493;28;20082;-63
2022/06/02 08:07:22;;;;;;;2.78;1.67;;;13.60;99.90;;;;;;5068851;28;20045;-64
2022/06/02 08:10:03;;;;;;;3.80;1.70;;;14.30;97.60;;;;;;5069456;28;20536;-64
2022/06/02 08:12:56;;;;;;;1.50;1.05;;;14.70;97.40;;;;;;5069126;28;20045;-64
2022/06/02 08:15:49;;;;;;;1.45;1.00;;;14.90;96.50;;;;;;5062370;28;20130;-66
2022/06/02 08:18:43;;;;;;;3.10;1.08;;;15.10;96.70;;;;;;5069878;28;20113;-63
2022/06/02 08:21:29;;;;;;;1.00;0.90;;;15.10;95.30;;;;;;5068491;28;20032;-66
2022/06/02 08:24:07;;;;;;;;;;;14.60;95.60;;;;;;5057664;28;20028;-63
2022/06/02 08:26:42;;;;;;;;;;;14.80;97.60;;;;;;5062714;28;19927;-63
2022/06/02 08:29:28;;;;;;;4.22;1.55;;;15.20;96.30;;;;;;5069111;28;19916;-64
2022/06/02 08:32:01;;;;;;;2.35;1.58;;;15.20;97.10;;;;;;5067714;28;20036;-64
2022/06/02 08:34:49;;;;;;;1.40;1.00;;;15.90;95.80;;;;;;5067129;28;20044;-64
2022/06/02 08:37:39;;;;;;;1.05;0.90;;;16.30;94.10;;;;;;5068588;28;20063;-64
2022/06/02 08:40:35;;;;;;;4.47;1.15;;;15.80;94.00;;;;;;5066480;28;20044;-63
2022/06/02 08:43:25;;;;;;;1.52;1.00;;;15.50;95.10;;;;;;5068058;28;20094;-63
2022/06/02 08:46:06;;;;;;;1.50;0.95;;;16.50;93.60;;;;;;5068152;28;20041;-63
2022/06/02 08:49:21;;;;;;;2.45;1.45;;;18.40;88.60;;;;;;5068856;28;20036;-64
2022/06/02 08:52:05;;;;;;;1.92;1.58;;;19.70;84.60;;;;;;5049408;28;20044;-63
2022/06/02 08:54:55;;;;;;;1.73;1.20;;;19.40;82.90;;;;;;5069009;28;20040;-62
2022/06/02 08:57:39;;;;;;;3.28;1.10;;;18.10;90.40;;;;;;5068391;28;20036;-63
2022/06/02 09:00:07;;;;;;;1.40;0.73;;;16.90;90.00;;;;;;5068322;28;20554;-67
2022/06/02 09:03:04;;;;;;;1.20;0.90;;;16.10;90.00;;;;;;5067001;28;20090;-63
2022/06/02 09:06:07;;;;;;;2.47;0.80;;;15.80;90.70;;;;;;5061259;28;20044;-64
2022/06/02 09:08:54;;;;;;;2.17;1.08;;;15.70;91.90;;;;;;5066248;28;20045;-62
2022/06/02 09:11:52;;;;;;;2.67;1.35;;;15.90;91.50;;;;;;5068667;28;20055;-63
2022/06/02 09:14:59;;;;;;;3.53;1.70;;;15.40;90.50;;;;;;5067802;28;20050;-64
2022/06/02 09:17:46;;;;;;;3.28;1.90;;;15.10;94.10;;;;;;5050266;28;20041;-63
2022/06/02 09:20:43;;;;;;;1.85;1.25;;;15.00;97.00;;;;;;5067098;28;20052;-63
2022/06/02 09:23:14;;;;;;;2.60;1.20;;;15.00;95.20;;;;;;5041254;28;20044;-62
2022/06/02 09:25:52;;;;;;;2.50;1.25;;;15.00;94.70;;;;;;5066874;28;20647;-63
2022/06/02 09:28:30;;;;;;;7.15;1.05;;;15.00;93.00;;;;;;5068283;28;20408;-63
2022/06/02 09:31:08;;;;;;;1.52;1.02;;;14.90;93.90;;;;;;5065686;28;20404;-62
2022/06/02 09:34:04;;;;;;;4.38;1.70;;;14.90;93.70;;;;;;5070092;28;20039;-63
2022/06/02 09:37:24;;;;;;;6.93;1.65;;;15.10;94.10;;;;;;5061620;28;20049;-62
2022/06/02 09:40:17;;;;;;;3.95;1.48;;;14.80;96.20;;;;;;5004136;28;20038;-62
2022/06/02 09:43:19;;;;;;;4.47;1.98;;;14.70;96.60;;;;;;5047923;28;20061;-63
2022/06/02 09:46:04;;;;;;;2.05;1.55;;;14.50;96.90;;;;;;5066668;28;20071;-63
2022/06/02 09:48:42;;;;;;;3.50;1.85;;;14.00;96.80;;;;;;5066202;28;20040;-63
2022/06/02 09:51:32;;;;;;;2.13;1.63;;;14.00;96.50;;;;;;5066339;28;20518;-63
2022/06/02 09:54:35;;;;;;;2.65;1.70;;;14.40;96.70;;;;;;5067799;28;20124;-63
2022/06/02 09:57:58;;;;;;;1.70;1.45;;;14.50;95.00;;;;;;5064531;28;20052;-63
2022/06/02 10:00:42;;;;;;;3.88;1.42;;;14.40;95.30;;;;;;5043883;28;20061;-63
2022/06/02 10:03:26;;;;;;;3.30;1.42;;;14.60;94.60;;;;;;5049458;28;20676;-63
2022/06/02 10:06:16;;;;;;;3.90;1.17;;;14.60;95.10;;;;;;5066279;28;20475;-64
2022/06/02 10:09:20;;;;;;;1.88;0.88;;;14.40;96.40;;;;;;5064926;28;20048;-63
2022/06/02 10:11:55;;;;;;;1.98;1.17;;;14.40;97.20;;;;;;5061641;28;20542;-63
2022/06/02 10:14:47;;;;;;;3.50;1.42;;;14.40;96.80;;;;;;5057272;28;20028;-64
2022/06/02 10:17:27;;;;;;;2.45;1.38;;;14.40;97.90;;;;;;5065391;28;20040;-63
2022/06/02 10:20:06;;;;;;;1.67;1.30;;;14.40;97.60;;;;;;5066693;28;20044;-63
2022/06/02 10:22:53;;;;;;;3.55;1.77;;;14.40;97.50;;;;;;5066318;28;20032;-63
2022/06/02 10:25:27;;;;;;;3.53;1.52;;;14.30;95.60;;;;;;5066174;28;20320;-62
2022/06/02 10:28:09;;;;;;;4.32;1.80;;;14.00;97.10;;;;;;5066600;28;20049;-63
2022/06/02 10:30:47;;;;;;;3.70;1.17;;;14.00;98.00;;;;;;5064862;28;20575;-63
2022/06/02 10:33:36;;;;;;;1.80;1.30;;;14.00;96.80;;;;;;5046409;28;20472;-63
2022/06/02 10:36:28;;;;;;;4.40;1.67;;;14.40;96.40;;;;;;5026285;28;20040;-62
2022/06/02 10:39:19;;;;;;;1.55;1.20;;;14.80;97.10;;;;;;5045868;28;20033;-63
2022/06/02 10:42:06;;;;;;;1.17;1.00;;;15.00;95.00;;;;;;5052945;28;20036;-63
2022/06/02 10:44:51;;;;;;;1.65;1.27;;;15.10;95.00;;;;;;5059304;28;20520;-63
2022/06/02 10:48:02;;;;;;;1.58;1.33;;;15.60;95.00;;;;;;5056155;28;20071;-63
2022/06/02 10:51:05;;;;;;;1.80;1.30;;;15.90;95.50;;;;;;5045684;28;20106;-63
2022/06/02 10:54:08;;;;;;;4.07;1.38;;;16.10;94.90;;;;;;5050134;28;20041;-63
2022/06/02 10:57:11;;;;;;;1.60;1.40;;;16.30;95.30;;;;;;5045613;28;20036;-63
2022/06/02 10:59:59;;;;;;;3.75;1.58;;;16.50;95.40;;;;;;5066074;28;20128;-63
2022/06/02 11:02:45;;;;;;;3.20;1.70;;;16.20;94.90;;;;;;5055872;28;20045;-63
2022/06/02 11:05:28;;;;;;;2.25;1.42;;;16.00;93.00;;;;;;5045685;28;20033;-63
2022/06/02 11:08:24;;;;;;;4.00;1.50;;;16.20;92.90;;;;;;5058060;28;20131;-64
2022/06/02 11:10:53;;;;;;;1.55;1.20;;;16.10;93.30;;;;;;5049890;28;20040;-64
2022/06/02 11:13:39;;;;;;;2.30;1.20;;;16.00;92.90;;;;;;5046757;28;20037;-63
2022/06/02 11:16:08;;;;;;;3.10;1.40;;;15.80;92.40;;;;;;5053238;28;20049;-64
2022/06/02 11:19:01;;;;;;;2.55;1.13;;;15.60;95.30;;;;;;5062079;28;20043;-63
2022/06/02 11:21:49;;;;;;;1.95;0.88;;;15.80;96.20;;;;;;5062794;28;20036;-63
2022/06/02 11:24:53;;;;;;;3.50;1.27;;;15.90;95.80;;;;;;5047056;28;20056;-63
2022/06/02 11:27:59;;;;;;;3.95;1.50;;;15.90;95.70;;;;;;5046154;28;20044;-64
2022/06/02 11:30:48;;;;;;;2.45;1.27;;;15.60;93.80;;;;;;5046277;28;20036;-63
2022/06/02 11:33:22;;;;;;;1.45;1.20;;;15.70;95.30;;;;;;5008287;28;20047;-63
2022/06/02 11:35:57;;;;;;;1.65;1.40;;;15.90;95.30;;;;;;5045807;28;20045;-63
2022/06/02 11:38:47;;;;;;;1.35;1.10;;;16.20;95.10;;;;;;5048000;28;20051;-64
2022/06/02 11:41:31;;;;;;;2.65;1.50;;;16.10;93.60;;;;;;5046465;28;20041;-64
2022/06/02 11:44:05;;;;;;;3.47;1.85;;;16.10;92.30;;;;;;5050075;28;20040;-63
2022/06/02 11:47:12;;;;;;;1.60;1.42;;;15.60;94.70;;;;;;5056968;28;20405;-63
2022/06/02 11:49:47;;;;;;;3.05;1.50;;;15.40;94.40;;;;;;5026426;28;20049;-63
2022/06/02 11:52:43;;;;;;;2.08;1.35;;;15.30;95.70;;;;;;5045318;28;20044;-64
2022/06/02 11:55:20;;;;;;;2.45;1.60;;;15.50;96.20;;;;;;5042593;28;20033;-64
2022/06/02 11:58:21;;;;;;;1.80;1.40;;;15.60;94.70;;;;;;5045685;28;20052;-64
2022/06/02 12:01:12;;;;;;;2.90;1.50;;;15.80;93.40;;;;;;5041582;28;20040;-63
2022/06/02 12:03:56;;;;;;;2.03;1.42;;;16.10;93.50;;;;;;5051651;28;20538;-64
2022/06/02 12:06:41;;;;;;;2.05;1.45;;;16.00;93.40;;;;;;5058296;28;20040;-63
2022/06/02 12:09:09;;;;;;;2.20;1.30;;;16.20;93.30;;;;;;5052557;28;20460;-61
2022/06/02 12:12:14;;;;;;;1.88;1.35;;;16.40;93.00;;;;;;5043677;28;20062;-63
2022/06/02 12:14:49;;;;;;;3.97;1.45;;;16.70;93.10;;;;;;5048057;28;20547;-66
2022/06/02 12:17:34;;;;;;;2.38;1.67;;;17.00;91.90;;;;;;5047399;28;20052;-63
2022/06/02 12:20:25;;;;;;;3.50;1.90;;;16.80;91.50;;;;;;5051225;28;20029;-70
2022/06/02 12:23:27;;;;;;;2.97;1.20;;;17.00;91.40;;;;;;5053581;28;20041;-63
2022/06/02 12:26:13;;;;;;;2.00;1.60;;;16.90;92.20;;;;;;5046405;28;20041;-62
2022/06/02 12:28:49;;;;;;;2.55;1.33;;;16.50;92.20;;;;;;5038571;28;20056;-64
2022/06/02 12:31:59;;;;;;;2.72;1.65;;;16.40;93.10;;;;;;5046864;28;20041;-63
2022/06/02 12:34:58;;;;;;;2.35;1.50;;;16.30;92.50;;;;;;5028951;28;20056;-63
2022/06/02 12:37:51;;;;;;;1.45;1.27;;;16.20;93.30;;;;;;5053092;28;20044;-62
2022/06/02 12:40:34;;;;;;;2.22;1.30;;;16.10;94.50;;;;;;5048914;28;20131;-62
2022/06/02 12:43:21;;;;;;;1.52;1.10;;;16.00;93.90;;;;;;5040130;28;20033;-62
2022/06/02 12:45:48;;;;;;;1.92;1.48;;;15.70;94.20;;;;;;5045861;28;20125;-62
2022/06/02 12:48:51;;;;;;;2.17;1.50;;;15.90;95.20;;;;;;5068715;28;20045;-62
2022/06/02 12:51:26;;;;;;;1.80;1.30;;;15.60;94.80;;;;;;5054321;28;20029;-62
2022/06/02 12:54:03;;;;;;;2.50;1.60;;;15.80;96.20;;;;;;5061572;28;20090;-63
2022/06/02 12:57:06;;;;;;;2.63;1.90;;;15.80;94.00;;;;;;5051617;28;20056;-64
2022/06/02 12:59:53;;;;;;;2.03;1.23;;;16.40;95.50;;;;;;5058817;28;20033;-63
2022/06/02 13:02:47;;;;;;;5.07;1.50;;;16.60;93.60;;;;;;5059809;28;20040;-63
2022/06/02 13:05:13;;;;;;;3.28;1.35;;;16.60;93.50;;;;;;5063742;28;20029;-62
2022/06/02 13:07:51;;;;;;;;;;;17.00;94.00;;;;;;5054168;28;20056;-63
2022/06/02 13:10:46;;;;;;;1.42;1.10;;;17.20;94.00;;;;;;5062379;28;20627;-63
2022/06/02 13:13:31;;;;;;;2.75;1.38;;;17.60;92.30;;;;;;5047996;28;20076;-63
2022/06/02 13:16:24;;;;;;;2.63;1.50;;;17.50;90.60;;;;;;5066938;28;20048;-63
2022/06/02 13:19:20;;;;;;;1.60;1.15;;;17.60;92.70;;;;;;5029906;28;20123;-61
2022/06/02 13:22:13;;;;;;;3.20;1.00;;;17.60;92.40;;;;;;5061922;28;20040;-62
2022/06/02 13:24:59;;;;;;;2.10;1.45;;;17.40;91.90;;;;;;5048684;28;20037;-63
2022/06/02 13:27:56;;;;;;;2.65;1.20;;;17.40;90.60;;;;;;5042235;28;20073;-63
2022/06/02 13:30:43;;;;;;;1.38;0.95;;;17.20;91.00;;;;;;5065199;28;20409;-63
2022/06/02 13:33:29;;;;;;;1.33;0.93;;;16.80;91.40;;;;;;5044536;28;20029;-62
2022/06/02 13:36:16;;;;;;;2.65;1.30;;;16.80;92.30;;;;;;5038438;28;20080;-62
2022/06/02 13:39:09;;;;;;;3.63;1.27;;;17.20;91.00;;;;;;5041536;28;20045;-62
2022/06/02 13:41:43;;;;;;;2.22;1.10;;;17.20;90.90;;;;;;5038845;28;20033;-61
2022/06/02 13:44:30;;;;;;;5.50;1.70;;;17.20;91.20;;;;;;5038300;28;20045;-63
2022/06/02 13:47:25;;;;;;;9.80;2.60;;;16.90;91.10;;;;;;5038550;28;20048;-62
2022/06/02 13:50:15;;;;;;;2.05;1.83;;;16.50;91.20;;;;;;5037524;28;20064;-63
2022/06/02 13:53:05;;;;;;;3.33;1.75;;;16.40;92.00;;;;;;5050558;28;20043;-63
2022/06/02 13:59:20;;;;;;;4.80;1.58;;;16.40;91.60;;;;;;5062441;28;20045;-63
2022/06/02 14:02:10;;;;;;;4.72;1.70;;;16.60;91.90;;;;;;5045080;28;20049;-61
2022/06/02 14:04:58;;;;;;;2.20;1.63;;;16.70;93.80;;;;;;5040502;28;20052;-64
2022/06/02 14:07:50;;;;;;;2.33;1.48;;;16.60;91.70;;;;;;5049929;28;20098;-62
2022/06/02 14:10:28;;;;;;;1.92;1.20;;;16.60;93.40;;;;;;5060763;28;20045;-65
2022/06/02 14:13:03;;;;;;;1.65;1.40;;;16.70;93.70;;;;;;5053772;28;20040;-63
2022/06/02 14:15:47;;;;;;;3.80;1.70;;;17.00;91.70;;;;;;5059486;28;20101;-63
2022/06/02 14:18:55;;;;;;;4.72;1.25;;;17.00;91.80;;;;;;5056347;28;20040;-63
2022/06/02 14:21:24;;;;;;;2.47;1.40;;;17.10;91.00;;;;;;5052976;28;20041;-64
2022/06/02 14:24:19;;;;;;;1.75;1.30;;;17.10;90.50;;;;;;5048959;28;20568;-64
2022/06/02 14:26:48;;;;;;;2.35;1.83;;;17.30;91.70;;;;;;5044056;28;20037;-63
2022/06/02 14:29:37;;;;;;;2.30;1.70;;;17.20;88.30;;;;;;5045863;28;20106;-64
2022/06/02 14:32:24;;;;;;;3.85;1.20;;;17.10;90.20;;;;;;5044632;28;20048;-63
2022/06/02 14:35:09;;;;;;;;;;;17.20;90.50;;;;;;5039576;28;20120;-67
2022/06/02 14:38:18;;;;;;;6.65;2.03;;;17.40;90.60;;;;;;5038205;28;19928;-65
2022/06/02 14:40:54;;;;;;;2.90;1.50;;;17.30;90.10;;;;;;5045747;28;20036;-64